Terminal Aerodrome Forecast
Issued by NWS

Home | Current Version | Previous Version | Text Only | Print | Product List | Glossary On
Versions: 1 2 3 4 5 6 7 8 9 10 11 12 13 14 15 16 17 18 19
000
FTUS43 KMQT 271129
TAFIWD
TAF
KIWD 271129Z 2712/2812 26008KT P6SM -SHRA SCT004 BKN040
     FM271400 24007KT P6SM BKN040
     FM271500 23007KT P6SM SCT060
     FM272000 29007KT P6SM SCT110
     FM272200 28005KT P6SM VCSH SCT090
     FM280100 00000KT P6SM FEW090
      AMD LTD TO CLD VIS AND WIND=

USA.gov is the U.S. government's official web portal to all federal, state and local government web resources and services.